sensor_id;sensor_type;location;lat;lon;timestamp;P1;durP1;ratioP1;P2;durP2;ratioP2
70002;SDS011;57341;51.984;5.088;2022-09-16T00:00:46;5.20;;;0.90;;
70002;SDS011;57341;51.984;5.088;2022-09-16T00:03:16;3.88;;;1.02;;
70002;SDS011;57341;51.984;5.088;2022-09-16T00:05:45;5.00;;;1.52;;
70002;SDS011;57341;51.984;5.088;2022-09-16T00:08:15;5.57;;;1.30;;
70002;SDS011;57341;51.984;5.088;2022-09-16T00:10:43;9.88;;;1.90;;
70002;SDS011;57341;51.984;5.088;2022-09-16T00:13:11;6.03;;;1.67;;
70002;SDS011;57341;51.984;5.088;2022-09-16T00:15:42;6.68;;;1.80;;
70002;SDS011;57341;51.984;5.088;2022-09-16T00:18:10;9.70;;;2.70;;
70002;SDS011;57341;51.984;5.088;2022-09-16T00:20:42;9.60;;;1.90;;
70002;SDS011;57341;51.984;5.088;2022-09-16T00:23:13;8.93;;;1.83;;
70002;SDS011;57341;51.984;5.088;2022-09-16T00:25:40;6.05;;;1.60;;
70002;SDS011;57341;51.984;5.088;2022-09-16T00:28:07;8.13;;;1.88;;
70002;SDS011;57341;51.984;5.088;2022-09-16T00:30:34;6.45;;;1.90;;
70002;SDS011;57341;51.984;5.088;2022-09-16T00:33:01;11.60;;;2.13;;
70002;SDS011;57341;51.984;5.088;2022-09-16T00:35:28;11.60;;;2.10;;
70002;SDS011;57341;51.984;5.088;2022-09-16T00:37:55;4.20;;;1.25;;
70002;SDS011;57341;51.984;5.088;2022-09-16T00:40:22;9.68;;;1.80;;
70002;SDS011;57341;51.984;5.088;2022-09-16T00:42:49;5.18;;;1.35;;
70002;SDS011;57341;51.984;5.088;2022-09-16T00:45:17;8.70;;;1.73;;
70002;SDS011;57341;51.984;5.088;2022-09-16T00:50:21;6.80;;;1.75;;
70002;SDS011;57341;51.984;5.088;2022-09-16T00:52:55;5.75;;;1.50;;
70002;SDS011;57341;51.984;5.088;2022-09-16T00:55:24;8.43;;;1.77;;
70002;SDS011;57341;51.984;5.088;2022-09-16T00:57:59;9.02;;;2.30;;
70002;SDS011;57341;51.984;5.088;2022-09-16T01:00:31;8.60;;;2.20;;
70002;SDS011;57341;51.984;5.088;2022-09-16T01:02:58;8.77;;;1.92;;
70002;SDS011;57341;51.984;5.088;2022-09-16T01:05:25;7.72;;;1.98;;
70002;SDS011;57341;51.984;5.088;2022-09-16T01:07:53;13.75;;;2.35;;
70002;SDS011;57341;51.984;5.088;2022-09-16T01:10:21;12.85;;;2.13;;
70002;SDS011;57341;51.984;5.088;2022-09-16T01:12:54;9.20;;;2.00;;
70002;SDS011;57341;51.984;5.088;2022-09-16T01:15:27;10.73;;;2.13;;
70002;SDS011;57341;51.984;5.088;2022-09-16T01:23:35;6.43;;;2.33;;
70002;SDS011;57341;51.984;5.088;2022-09-16T01:29:25;12.10;;;2.70;;
70002;SDS011;57341;51.984;5.088;2022-09-16T01:35:02;15.82;;;3.05;;
70002;SDS011;57341;51.984;5.088;2022-09-16T01:40:27;11.07;;;2.67;;
70002;SDS011;57341;51.984;5.088;2022-09-16T01:43:02;13.20;;;3.03;;
70002;SDS011;57341;51.984;5.088;2022-09-16T01:45:53;10.75;;;2.53;;
70002;SDS011;57341;51.984;5.088;2022-09-16T01:54:38;12.18;;;1.73;;
70002;SDS011;57341;51.984;5.088;2022-09-16T01:57:10;13.00;;;2.42;;
70002;SDS011;57341;51.984;5.088;2022-09-16T01:59:55;7.55;;;1.75;;
70002;SDS011;57341;51.984;5.088;2022-09-16T02:05:21;9.98;;;2.70;;
70002;SDS011;57341;51.984;5.088;2022-09-16T02:08:06;10.52;;;2.60;;
70002;SDS011;57341;51.984;5.088;2022-09-16T02:10:40;8.90;;;2.10;;
70002;SDS011;57341;51.984;5.088;2022-09-16T02:13:35;4.28;;;1.60;;
70002;SDS011;57341;51.984;5.088;2022-09-16T02:16:09;5.78;;;1.85;;
70002;SDS011;57341;51.984;5.088;2022-09-16T02:18:43;7.55;;;1.60;;
70002;SDS011;57341;51.984;5.088;2022-09-16T02:21:15;5.00;;;0.90;;
70002;SDS011;57341;51.984;5.088;2022-09-16T02:23:45;3.50;;;1.38;;
70002;SDS011;57341;51.984;5.088;2022-09-16T02:26:16;11.02;;;1.35;;
70002;SDS011;57341;51.984;5.088;2022-09-16T02:28:48;9.85;;;1.60;;
70002;SDS011;57341;51.984;5.088;2022-09-16T02:31:20;4.45;;;1.27;;
70002;SDS011;57341;51.984;5.088;2022-09-16T02:34:06;2.53;;;0.80;;
70002;SDS011;57341;51.984;5.088;2022-09-16T02:36:46;4.03;;;0.98;;
70002;SDS011;57341;51.984;5.088;2022-09-16T02:39:19;5.20;;;1.15;;
70002;SDS011;57341;51.984;5.088;2022-09-16T02:41:52;3.58;;;1.30;;
70002;SDS011;57341;51.984;5.088;2022-09-16T02:44:20;6.22;;;1.77;;
70002;SDS011;57341;51.984;5.088;2022-09-16T02:49:37;8.05;;;1.80;;
70002;SDS011;57341;51.984;5.088;2022-09-16T02:57:21;3.28;;;1.48;;
70002;SDS011;57341;51.984;5.088;2022-09-16T02:59:48;4.93;;;1.40;;
70002;SDS011;57341;51.984;5.088;2022-09-16T03:02:16;8.68;;;1.45;;
70002;SDS011;57341;51.984;5.088;2022-09-16T03:04:43;2.28;;;0.80;;
70002;SDS011;57341;51.984;5.088;2022-09-16T03:07:11;5.03;;;1.40;;
70002;SDS011;57341;51.984;5.088;2022-09-16T03:09:40;4.55;;;1.50;;
70002;SDS011;57341;51.984;5.088;2022-09-16T03:12:14;5.97;;;1.45;;
70002;SDS011;57341;51.984;5.088;2022-09-16T03:15:43;5.88;;;1.55;;
70002;SDS011;57341;51.984;5.088;2022-09-16T03:27:19;5.70;;;1.27;;
70002;SDS011;57341;51.984;5.088;2022-09-16T03:29:56;3.78;;;0.93;;
70002;SDS011;57341;51.984;5.088;2022-09-16T03:32:41;3.45;;;0.95;;
70002;SDS011;57341;51.984;5.088;2022-09-16T03:37:43;7.22;;;0.98;;
70002;SDS011;57341;51.984;5.088;2022-09-16T03:40:12;1.90;;;0.77;;
70002;SDS011;57341;51.984;5.088;2022-09-16T03:42:42;2.25;;;0.50;;
70002;SDS011;57341;51.984;5.088;2022-09-16T03:45:12;5.65;;;1.58;;
70002;SDS011;57341;51.984;5.088;2022-09-16T03:47:42;3.13;;;0.93;;
70002;SDS011;57341;51.984;5.088;2022-09-16T03:50:10;4.50;;;1.23;;
70002;SDS011;57341;51.984;5.088;2022-09-16T03:52:36;3.05;;;1.33;;
70002;SDS011;57341;51.984;5.088;2022-09-16T03:55:05;3.17;;;0.75;;
70002;SDS011;57341;51.984;5.088;2022-09-16T03:57:33;6.93;;;1.40;;
70002;SDS011;57341;51.984;5.088;2022-09-16T04:00:00;8.60;;;2.13;;
70002;SDS011;57341;51.984;5.088;2022-09-16T04:02:37;3.60;;;1.00;;
70002;SDS011;57341;51.984;5.088;2022-09-16T04:05:04;6.97;;;1.02;;
70002;SDS011;57341;51.984;5.088;2022-09-16T04:07:31;6.30;;;1.40;;
70002;SDS011;57341;51.984;5.088;2022-09-16T04:09:59;7.38;;;1.50;;
70002;SDS011;57341;51.984;5.088;2022-09-16T04:12:27;4.78;;;1.45;;
70002;SDS011;57341;51.984;5.088;2022-09-16T04:14:54;3.88;;;1.10;;
70002;SDS011;57341;51.984;5.088;2022-09-16T04:17:22;1.50;;;0.55;;
70002;SDS011;57341;51.984;5.088;2022-09-16T04:19:49;7.88;;;1.33;;
70002;SDS011;57341;51.984;5.088;2022-09-16T04:22:18;4.28;;;0.85;;
70002;SDS011;57341;51.984;5.088;2022-09-16T04:24:45;3.78;;;1.02;;
70002;SDS011;57341;51.984;5.088;2022-09-16T04:27:12;9.45;;;1.67;;
70002;SDS011;57341;51.984;5.088;2022-09-16T04:29:39;6.72;;;1.48;;
70002;SDS011;57341;51.984;5.088;2022-09-16T04:32:06;11.20;;;1.20;;
70002;SDS011;57341;51.984;5.088;2022-09-16T04:34:32;4.82;;;1.27;;
70002;SDS011;57341;51.984;5.088;2022-09-16T04:36:59;5.47;;;1.30;;
70002;SDS011;57341;51.984;5.088;2022-09-16T04:39:27;5.97;;;1.35;;
70002;SDS011;57341;51.984;5.088;2022-09-16T04:41:54;7.03;;;1.40;;
70002;SDS011;57341;51.984;5.088;2022-09-16T04:44:20;7.03;;;1.55;;
70002;SDS011;57341;51.984;5.088;2022-09-16T04:46:47;8.93;;;1.55;;
70002;SDS011;57341;51.984;5.088;2022-09-16T04:49:14;3.35;;;1.48;;
70002;SDS011;57341;51.984;5.088;2022-09-16T04:51:41;3.20;;;1.15;;
70002;SDS011;57341;51.984;5.088;2022-09-16T04:54:08;1.58;;;0.90;;
70002;SDS011;57341;51.984;5.088;2022-09-16T04:56:36;1.58;;;0.52;;
70002;SDS011;57341;51.984;5.088;2022-09-16T04:59:04;0.80;;;0.70;;
70002;SDS011;57341;51.984;5.088;2022-09-16T05:01:35;7.68;;;1.63;;
70002;SDS011;57341;51.984;5.088;2022-09-16T05:04:04;6.63;;;1.73;;
70002;SDS011;57341;51.984;5.088;2022-09-16T05:06:37;7.30;;;2.30;;
70002;SDS011;57341;51.984;5.088;2022-09-16T05:09:09;8.32;;;1.73;;
70002;SDS011;57341;51.984;5.088;2022-09-16T05:11:37;4.00;;;1.25;;
70002;SDS011;57341;51.984;5.088;2022-09-16T05:14:06;6.60;;;1.95;;
70002;SDS011;57341;51.984;5.088;2022-09-16T05:16:36;8.27;;;1.48;;
70002;SDS011;57341;51.984;5.088;2022-09-16T05:19:03;8.90;;;2.40;;
70002;SDS011;57341;51.984;5.088;2022-09-16T05:21:31;4.50;;;1.30;;
70002;SDS011;57341;51.984;5.088;2022-09-16T05:24:01;2.80;;;1.02;;
70002;SDS011;57341;51.984;5.088;2022-09-16T05:26:31;4.43;;;1.65;;
70002;SDS011;57341;51.984;5.088;2022-09-16T05:28:59;8.90;;;1.80;;
70002;SDS011;57341;51.984;5.088;2022-09-16T05:31:28;7.07;;;1.52;;
70002;SDS011;57341;51.984;5.088;2022-09-16T05:34:05;6.88;;;1.65;;
70002;SDS011;57341;51.984;5.088;2022-09-16T05:36:44;6.50;;;1.20;;
70002;SDS011;57341;51.984;5.088;2022-09-16T05:39:13;7.68;;;1.98;;
70002;SDS011;57341;51.984;5.088;2022-09-16T05:41:51;9.05;;;1.70;;
70002;SDS011;57341;51.984;5.088;2022-09-16T05:44:23;6.97;;;1.45;;
70002;SDS011;57341;51.984;5.088;2022-09-16T05:46:51;2.58;;;1.02;;
70002;SDS011;57341;51.984;5.088;2022-09-16T05:49:20;9.57;;;1.50;;
70002;SDS011;57341;51.984;5.088;2022-09-16T05:51:49;5.05;;;1.80;;
70002;SDS011;57341;51.984;5.088;2022-09-16T05:54:16;4.40;;;1.30;;
70002;SDS011;57341;51.984;5.088;2022-09-16T05:56:45;5.32;;;1.50;;
70002;SDS011;57341;51.984;5.088;2022-09-16T05:59:13;3.63;;;1.05;;
70002;SDS011;57341;51.984;5.088;2022-09-16T06:01:41;6.03;;;1.60;;
70002;SDS011;57341;51.984;5.088;2022-09-16T06:04:09;7.15;;;1.58;;
70002;SDS011;57341;51.984;5.088;2022-09-16T06:06:38;8.57;;;1.90;;
70002;SDS011;57341;51.984;5.088;2022-09-16T06:09:17;6.95;;;2.15;;
70002;SDS011;57341;51.984;5.088;2022-09-16T06:11:46;6.57;;;1.95;;
70002;SDS011;57341;51.984;5.088;2022-09-16T06:14:15;5.80;;;1.60;;
70002;SDS011;57341;51.984;5.088;2022-09-16T06:16:43;4.80;;;1.25;;
70002;SDS011;57341;51.984;5.088;2022-09-16T06:19:14;7.10;;;1.90;;
70002;SDS011;57341;51.984;5.088;2022-09-16T06:21:43;6.40;;;1.30;;
70002;SDS011;57341;51.984;5.088;2022-09-16T06:24:12;5.18;;;1.60;;
70002;SDS011;57341;51.984;5.088;2022-09-16T06:26:41;5.22;;;1.67;;
70002;SDS011;57341;51.984;5.088;2022-09-16T06:29:09;8.23;;;2.00;;
70002;SDS011;57341;51.984;5.088;2022-09-16T06:31:37;5.10;;;1.52;;
70002;SDS011;57341;51.984;5.088;2022-09-16T06:34:05;9.18;;;2.00;;
70002;SDS011;57341;51.984;5.088;2022-09-16T06:36:37;9.73;;;2.00;;
70002;SDS011;57341;51.984;5.088;2022-09-16T06:39:12;7.70;;;1.92;;
70002;SDS011;57341;51.984;5.088;2022-09-16T06:41:40;11.70;;;2.30;;
70002;SDS011;57341;51.984;5.088;2022-09-16T06:44:08;7.97;;;1.90;;
70002;SDS011;57341;51.984;5.088;2022-09-16T06:46:35;7.38;;;1.60;;
70002;SDS011;57341;51.984;5.088;2022-09-16T06:49:03;8.15;;;2.10;;
70002;SDS011;57341;51.984;5.088;2022-09-16T06:51:32;7.55;;;1.70;;
70002;SDS011;57341;51.984;5.088;2022-09-16T06:54:03;7.45;;;1.70;;
70002;SDS011;57341;51.984;5.088;2022-09-16T06:56:32;8.32;;;1.90;;
70002;SDS011;57341;51.984;5.088;2022-09-16T06:59:01;14.45;;;2.42;;
70002;SDS011;57341;51.984;5.088;2022-09-16T07:01:29;7.78;;;1.80;;
70002;SDS011;57341;51.984;5.088;2022-09-16T07:03:57;5.50;;;1.52;;
70002;SDS011;57341;51.984;5.088;2022-09-16T07:06:27;7.53;;;1.98;;
70002;SDS011;57341;51.984;5.088;2022-09-16T07:09:15;10.07;;;2.15;;
70002;SDS011;57341;51.984;5.088;2022-09-16T07:11:43;5.95;;;1.73;;
70002;SDS011;57341;51.984;5.088;2022-09-16T07:14:10;9.45;;;2.10;;
70002;SDS011;57341;51.984;5.088;2022-09-16T07:16:37;12.27;;;2.75;;
70002;SDS011;57341;51.984;5.088;2022-09-16T07:19:05;8.20;;;2.20;;
70002;SDS011;57341;51.984;5.088;2022-09-16T07:21:32;7.88;;;2.03;;
70002;SDS011;57341;51.984;5.088;2022-09-16T07:23:59;4.03;;;1.27;;
70002;SDS011;57341;51.984;5.088;2022-09-16T07:26:28;7.47;;;1.60;;
70002;SDS011;57341;51.984;5.088;2022-09-16T07:28:58;8.63;;;1.50;;
70002;SDS011;57341;51.984;5.088;2022-09-16T07:31:27;7.28;;;1.27;;
70002;SDS011;57341;51.984;5.088;2022-09-16T07:33:56;6.75;;;1.30;;
70002;SDS011;57341;51.984;5.088;2022-09-16T07:36:36;5.03;;;1.00;;
70002;SDS011;57341;51.984;5.088;2022-09-16T07:39:05;7.57;;;1.40;;
70002;SDS011;57341;51.984;5.088;2022-09-16T07:41:34;8.52;;;1.50;;
70002;SDS011;57341;51.984;5.088;2022-09-16T07:44:04;9.73;;;1.63;;
70002;SDS011;57341;51.984;5.088;2022-09-16T07:46:33;11.95;;;1.90;;
70002;SDS011;57341;51.984;5.088;2022-09-16T07:49:02;6.15;;;1.40;;
70002;SDS011;57341;51.984;5.088;2022-09-16T07:51:31;6.80;;;0.98;;
70002;SDS011;57341;51.984;5.088;2022-09-16T07:53:59;4.75;;;1.20;;
70002;SDS011;57341;51.984;5.088;2022-09-16T07:56:30;5.72;;;1.20;;
70002;SDS011;57341;51.984;5.088;2022-09-16T07:59:00;3.83;;;0.85;;
70002;SDS011;57341;51.984;5.088;2022-09-16T08:01:28;3.28;;;0.95;;
70002;SDS011;57341;51.984;5.088;2022-09-16T08:03:59;7.40;;;1.10;;
70002;SDS011;57341;51.984;5.088;2022-09-16T08:06:28;5.78;;;1.33;;
70002;SDS011;57341;51.984;5.088;2022-09-16T08:08:58;8.48;;;1.38;;
70002;SDS011;57341;51.984;5.088;2022-09-16T08:11:46;7.53;;;1.35;;
70002;SDS011;57341;51.984;5.088;2022-09-16T08:14:13;6.68;;;1.50;;
70002;SDS011;57341;51.984;5.088;2022-09-16T08:16:41;7.22;;;1.33;;
70002;SDS011;57341;51.984;5.088;2022-09-16T08:19:08;4.68;;;1.33;;
70002;SDS011;57341;51.984;5.088;2022-09-16T08:21:35;3.40;;;0.70;;
70002;SDS011;57341;51.984;5.088;2022-09-16T08:24:02;2.00;;;0.80;;
70002;SDS011;57341;51.984;5.088;2022-09-16T08:26:29;3.03;;;0.75;;
70002;SDS011;57341;51.984;5.088;2022-09-16T08:28:56;4.55;;;1.13;;
70002;SDS011;57341;51.984;5.088;2022-09-16T08:31:34;7.22;;;1.23;;
70002;SDS011;57341;51.984;5.088;2022-09-16T08:34:02;6.85;;;1.13;;
70002;SDS011;57341;51.984;5.088;2022-09-16T08:36:30;5.78;;;1.20;;
70002;SDS011;57341;51.984;5.088;2022-09-16T08:39:00;7.40;;;1.17;;
70002;SDS011;57341;51.984;5.088;2022-09-16T08:44:41;6.15;;;1.00;;
70002;SDS011;57341;51.984;5.088;2022-09-16T08:49:57;3.67;;;1.10;;
70002;SDS011;57341;51.984;5.088;2022-09-16T08:58:25;3.15;;;0.82;;
70002;SDS011;57341;51.984;5.088;2022-09-16T09:01:10;7.60;;;1.00;;
70002;SDS011;57341;51.984;5.088;2022-09-16T09:04:04;6.97;;;1.10;;
70002;SDS011;57341;51.984;5.088;2022-09-16T09:12:09;4.03;;;1.23;;
70002;SDS011;57341;51.984;5.088;2022-09-16T09:15:00;7.38;;;1.30;;
70002;SDS011;57341;51.984;5.088;2022-09-16T09:26:03;2.63;;;1.15;;
70002;SDS011;57341;51.984;5.088;2022-09-16T09:31:46;4.55;;;1.00;;
70002;SDS011;57341;51.984;5.088;2022-09-16T09:34:43;5.10;;;1.00;;
70002;SDS011;57341;51.984;5.088;2022-09-16T09:43:19;3.67;;;1.00;;
70002;SDS011;57341;51.984;5.088;2022-09-16T09:45:58;2.88;;;0.77;;
70002;SDS011;57341;51.984;5.088;2022-09-16T09:51:36;4.97;;;1.00;;
70002;SDS011;57341;51.984;5.088;2022-09-16T09:54:34;4.35;;;1.15;;
70002;SDS011;57341;51.984;5.088;2022-09-16T09:57:04;4.82;;;1.55;;
70002;SDS011;57341;51.984;5.088;2022-09-16T10:02:15;6.38;;;1.33;;
70002;SDS011;57341;51.984;5.088;2022-09-16T10:04:44;9.20;;;1.27;;
70002;SDS011;57341;51.984;5.088;2022-09-16T10:07:12;7.07;;;1.40;;
70002;SDS011;57341;51.984;5.088;2022-09-16T10:09:54;3.45;;;0.90;;
70002;SDS011;57341;51.984;5.088;2022-09-16T10:12:29;3.35;;;0.63;;
70002;SDS011;57341;51.984;5.088;2022-09-16T10:14:58;4.15;;;0.90;;
70002;SDS011;57341;51.984;5.088;2022-09-16T10:17:26;7.68;;;1.40;;
70002;SDS011;57341;51.984;5.088;2022-09-16T10:20:19;5.88;;;1.13;;
70002;SDS011;57341;51.984;5.088;2022-09-16T10:23:03;5.47;;;1.02;;
70002;SDS011;57341;51.984;5.088;2022-09-16T10:25:38;5.38;;;1.25;;
70002;SDS011;57341;51.984;5.088;2022-09-16T10:28:22;3.83;;;1.33;;
70002;SDS011;57341;51.984;5.088;2022-09-16T10:30:55;7.47;;;1.27;;
70002;SDS011;57341;51.984;5.088;2022-09-16T10:33:28;4.72;;;1.38;;
70002;SDS011;57341;51.984;5.088;2022-09-16T10:36:02;4.30;;;1.00;;
70002;SDS011;57341;51.984;5.088;2022-09-16T10:38:36;4.57;;;1.13;;
70002;SDS011;57341;51.984;5.088;2022-09-16T10:44:17;7.43;;;1.70;;
70002;SDS011;57341;51.984;5.088;2022-09-16T10:47:02;4.53;;;1.33;;
70002;SDS011;57341;51.984;5.088;2022-09-16T10:49:39;5.90;;;0.95;;
70002;SDS011;57341;51.984;5.088;2022-09-16T10:52:16;5.40;;;1.27;;
70002;SDS011;57341;51.984;5.088;2022-09-16T10:54:50;3.70;;;0.95;;
70002;SDS011;57341;51.984;5.088;2022-09-16T10:57:28;1.48;;;0.65;;
70002;SDS011;57341;51.984;5.088;2022-09-16T11:05:35;3.45;;;0.75;;
70002;SDS011;57341;51.984;5.088;2022-09-16T11:11:15;3.17;;;0.98;;
70002;SDS011;57341;51.984;5.088;2022-09-16T11:13:59;4.75;;;0.80;;
70002;SDS011;57341;51.984;5.088;2022-09-16T11:19:53;6.88;;;1.48;;
70002;SDS011;57341;51.984;5.088;2022-09-16T11:22:46;3.35;;;0.82;;
70002;SDS011;57341;51.984;5.088;2022-09-16T11:25:59;6.82;;;1.30;;
70002;SDS011;57341;51.984;5.088;2022-09-16T11:31:35;4.68;;;0.90;;
70002;SDS011;57341;51.984;5.088;2022-09-16T11:42:36;5.30;;;1.35;;
70002;SDS011;57341;51.984;5.088;2022-09-16T11:45:38;3.15;;;0.65;;
70002;SDS011;57341;51.984;5.088;2022-09-16T11:48:42;3.60;;;0.80;;
70002;SDS011;57341;51.984;5.088;2022-09-16T23:04:13;9.73;;;1.63;;
70002;SDS011;57341;51.984;5.088;2022-09-16T23:06:40;12.88;;;1.88;;
70002;SDS011;57341;51.984;5.088;2022-09-16T23:09:09;8.45;;;1.98;;
70002;SDS011;57341;51.984;5.088;2022-09-16T23:14:05;13.27;;;2.42;;
70002;SDS011;57341;51.984;5.088;2022-09-16T23:16:35;9.25;;;2.00;;
70002;SDS011;57341;51.984;5.088;2022-09-16T23:19:05;15.07;;;2.33;;
70002;SDS011;57341;51.984;5.088;2022-09-16T23:21:33;9.18;;;2.25;;
70002;SDS011;57341;51.984;5.088;2022-09-16T23:24:02;7.70;;;2.15;;
70002;SDS011;57341;51.984;5.088;2022-09-16T23:26:31;11.95;;;1.58;;
70002;SDS011;57341;51.984;5.088;2022-09-16T23:29:00;9.90;;;2.10;;
70002;SDS011;57341;51.984;5.088;2022-09-16T23:31:31;8.95;;;1.58;;
70002;SDS011;57341;51.984;5.088;2022-09-16T23:34:00;11.98;;;2.47;;
70002;SDS011;57341;51.984;5.088;2022-09-16T23:36:33;11.68;;;2.53;;
70002;SDS011;57341;51.984;5.088;2022-09-16T23:39:04;9.95;;;2.15;;
70002;SDS011;57341;51.984;5.088;2022-09-16T23:41:32;11.68;;;2.00;;
70002;SDS011;57341;51.984;5.088;2022-09-16T23:44:00;12.18;;;2.38;;
70002;SDS011;57341;51.984;5.088;2022-09-16T23:46:27;8.73;;;1.83;;
70002;SDS011;57341;51.984;5.088;2022-09-16T23:48:56;11.80;;;2.78;;
70002;SDS011;57341;51.984;5.088;2022-09-16T23:51:25;8.10;;;1.95;;
70002;SDS011;57341;51.984;5.088;2022-09-16T23:53:54;8.45;;;1.73;;
70002;SDS011;57341;51.984;5.088;2022-09-16T23:56:22;9.15;;;2.13;;
70002;SDS011;57341;51.984;5.088;2022-09-16T23:58:49;8.70;;;1.88;;
